Time;durP1;ratioP1;P1;durP2;ratioP2;P2;SDS_P1;SDS_P2;PMS_P1;PMS_P2;Temp;Humidity;BMP_temperature;BMP_pressure;BME280_temperature;BME280_humidity;BME280_pressure;Samples;Min_cycle;Max_cycle;Signal;HPM_P1;HPM_P2
2023/10/16 00:02:16;;;;;;;;;4.75;0.75;;;;;9.90;47.09;101676.19;5107323;27;45888;-70
2023/10/16 00:04:45;;;;;;;;;3.00;1.75;;;;;9.83;47.21;101678.00;5100935;27;45451;-70
2023/10/16 00:07:13;;;;;;;;;1.50;1.00;;;;;9.78;47.18;101674.53;5100996;27;45413;-71
2023/10/16 00:09:40;;;;;;;;;2.75;1.00;;;;;9.74;47.16;101672.84;5109269;27;46160;-71
2023/10/16 00:12:05;;;;;;;;;3.75;1.50;;;;;9.71;47.28;101669.41;5121521;27;45454;-70
2023/10/16 00:14:31;;;;;;;;;2.00;1.00;;;;;9.63;47.65;101662.50;5121219;27;45522;-71
2023/10/16 00:16:57;;;;;;;;;1.25;1.00;;;;;9.58;47.58;101661.66;5120649;27;54743;-71
2023/10/16 00:19:25;;;;;;;;;0.00;0.00;;;;;9.62;47.57;101662.50;5122235;27;45428;-72
2023/10/16 00:21:52;;;;;;;;;2.00;0.50;;;;;9.65;47.78;101665.94;5122588;27;45321;-70
2023/10/16 00:24:18;;;;;;;;;3.25;1.50;;;;;9.60;47.73;101653.81;5115555;27;45197;-70
2023/10/16 00:26:50;;;;;;;;;3.75;1.00;;;;;9.64;47.73;101660.72;5100299;27;45583;-69
2023/10/16 00:29:35;;;;;;;;;2.75;1.25;;;;;9.65;47.67;101660.72;5084062;27;46952;-70
2023/10/16 00:32:02;;;;;;;;;4.00;2.00;;;;;9.63;47.55;101662.50;5101531;27;45313;-71
2023/10/16 00:34:28;;;;;;;;;0.00;0.00;;;;;9.60;47.77;101662.50;5082870;27;45281;-71
2023/10/16 00:36:54;;;;;;;;;2.00;1.50;;;;;9.58;47.75;101660.75;5100310;27;45438;-71
2023/10/16 00:39:20;;;;;;;;;3.75;1.00;;;;;9.56;47.81;101655.56;5099982;27;53858;-71
2023/10/16 00:41:50;;;;;;;;;1.75;1.25;;;;;9.49;47.96;101652.13;5083471;27;45809;-71
2023/10/16 00:44:17;;;;;;;;;0.00;0.00;;;;;9.45;48.08;101646.94;5100698;27;45385;-71
2023/10/16 00:46:45;;;;;;;;;1.00;1.00;;;;;9.46;47.98;101648.69;5101582;27;45332;-70
2023/10/16 00:49:13;;;;;;;;;3.00;1.00;;;;;9.39;48.21;101637.41;5099931;27;47991;-71
2023/10/16 00:51:40;;;;;;;;;1.00;1.00;;;;;9.41;48.05;101645.25;5100277;27;45525;-71
2023/10/16 00:54:16;;;;;;;;;4.00;1.00;;;;;9.38;48.18;101640.88;5100081;27;45364;-71
2023/10/16 00:56:42;;;;;;;;;1.75;1.00;;;;;9.35;48.22;101645.25;5100295;27;45845;-70
2023/10/16 00:59:08;;;;;;;;;5.50;1.00;;;;;9.30;48.65;101640.94;5082949;27;48537;-70
2023/10/16 01:01:33;;;;;;;;;3.25;1.75;;;;;9.28;48.27;101631.41;5103879;27;45308;-71
2023/10/16 01:03:59;;;;;;;;;1.00;1.00;;;;;9.24;48.49;101630.56;5082675;27;45410;-72
2023/10/16 01:06:36;;;;;;;;;0.75;0.75;;;;;9.23;48.54;101625.34;5082979;27;45837;-71
2023/10/16 01:09:02;;;;;;;;;1.25;1.00;;;;;9.24;48.61;101632.28;5088770;27;47046;-70
2023/10/16 01:11:27;;;;;;;;;2.00;1.00;;;;;9.23;49.02;101633.19;5099918;27;45357;-71
2023/10/16 01:13:54;;;;;;;;;1.25;1.00;;;;;9.17;48.65;101625.38;5099770;27;45356;-71
2023/10/16 01:16:20;;;;;;;;;2.75;1.00;;;;;9.14;49.07;101621.06;5083030;27;46080;-70
2023/10/16 01:18:45;;;;;;;;;2.00;1.00;;;;;9.13;48.83;101621.91;5114607;27;45509;-71
2023/10/16 01:21:14;;;;;;;;;1.75;1.00;;;;;9.09;49.03;101623.69;5121047;27;61989;-70
2023/10/16 01:23:40;;;;;;;;;1.00;1.00;;;;;9.02;49.46;101610.69;5120348;27;45282;-70
2023/10/16 01:26:06;;;;;;;;;1.00;1.00;;;;;9.08;49.05;101621.97;5082802;27;45538;-71
2023/10/16 01:28:32;;;;;;;;;5.25;2.00;;;;;9.06;49.35;101615.84;5099740;27;48107;-70
2023/10/16 01:30:57;;;;;;;;;2.75;1.25;;;;;9.04;49.79;101606.31;5099470;27;45454;-71
2023/10/16 01:33:23;;;;;;;;;1.00;0.50;;;;;9.04;49.51;101615.00;5082288;27;45344;-70
2023/10/16 01:35:50;;;;;;;;;1.00;1.00;;;;;9.06;49.81;101613.25;5082398;27;45343;-71
2023/10/16 01:38:16;;;;;;;;;1.50;1.00;;;;;9.06;49.62;101600.19;5099289;27;47355;-71
2023/10/16 01:41:05;;;;;;;;;1.00;1.00;;;;;9.07;49.91;101604.56;5082561;27;45747;-71
2023/10/16 01:43:32;;;;;;;;;2.75;1.25;;;;;9.07;49.56;101603.69;5099229;27;45306;-71
2023/10/16 01:46:01;;;;;;;;;4.25;1.00;;;;;9.04;49.91;101601.94;5099396;27;45541;-71
2023/10/16 01:48:29;;;;;;;;;0.25;0.25;;;;;9.05;50.06;101606.31;5099128;27;46507;-71
2023/10/16 01:50:55;;;;;;;;;1.00;1.00;;;;;9.02;50.12;101601.09;5090775;27;45788;-71
2023/10/16 01:53:23;;;;;;;;;1.50;1.00;;;;;9.01;50.17;101599.38;5099256;27;45387;-71
2023/10/16 01:55:51;;;;;;;;;2.75;1.00;;;;;8.96;50.35;101588.09;5099296;27;45426;-71
2023/10/16 01:58:17;;;;;;;;;3.50;1.00;;;;;8.97;50.22;101596.78;5084214;27;47165;-71
2023/10/16 02:00:43;;;;;;;;;1.00;1.00;;;;;8.93;50.46;101599.41;5119697;27;45879;-71
2023/10/16 02:03:09;;;;;;;;;4.75;1.00;;;;;8.91;50.31;101590.72;5102252;27;45510;-72
2023/10/16 02:05:34;;;;;;;;;2.00;2.00;;;;;8.83;50.65;101579.47;5106998;27;45198;-71
2023/10/16 02:07:59;;;;;;;;;4.00;0.75;;;;;8.82;50.93;101587.28;5100131;27;46370;-71
2023/10/16 02:10:25;;;;;;;;;5.00;1.50;;;;;8.79;51.06;101566.47;5098699;27;70714;-71
2023/10/16 02:12:50;;;;;;;;;2.00;2.00;;;;;8.78;51.07;101567.31;5101862;27;47224;-71
2023/10/16 02:15:21;;;;;;;;;1.00;1.00;;;;;8.81;50.94;101569.91;5118875;27;63899;-71
2023/10/16 02:17:49;;;;;;;;;1.00;1.00;;;;;8.78;51.17;101567.31;5120429;27;45505;-71
2023/10/16 02:20:16;;;;;;;;;1.50;1.25;;;;;8.71;51.68;101566.47;5102643;27;45860;-71
2023/10/16 02:22:41;;;;;;;;;2.00;1.00;;;;;8.74;51.64;101569.09;5102606;27;45387;-71
2023/10/16 02:25:08;;;;;;;;;2.00;1.25;;;;;8.73;51.43;101567.38;5102241;27;45440;-71
2023/10/16 02:27:35;;;;;;;;;2.25;0.75;;;;;8.67;51.86;101556.94;5119425;27;46432;-71
2023/10/16 02:30:16;;;;;;;;;1.00;1.00;;;;;8.66;51.79;101552.63;5084998;27;45490;-71
2023/10/16 02:32:42;;;;;;;;;2.00;1.00;;;;;8.68;51.95;101556.09;5104307;27;45452;-71
2023/10/16 02:35:13;;;;;;;;;1.75;1.00;;;;;8.66;51.98;101550.88;5119324;27;45431;-71
2023/10/16 02:37:39;;;;;;;;;1.50;0.75;;;;;8.62;51.81;101543.91;5119579;27;45348;-71
2023/10/16 02:40:09;;;;;;;;;1.00;1.00;;;;;8.55;52.11;101537.88;5119251;27;45728;-71
2023/10/16 02:42:35;;;;;;;;;3.00;0.50;;;;;8.58;52.55;101541.34;5119650;27;45387;-71
2023/10/16 02:45:00;;;;;;;;;2.00;1.00;;;;;8.56;52.04;101536.13;5119105;27;45366;-71
2023/10/16 02:47:25;;;;;;;;;1.25;1.25;;;;;8.50;52.64;101537.03;5119006;27;45643;-71
2023/10/16 02:49:51;;;;;;;;;3.50;1.25;;;;;8.57;52.57;101544.81;5119927;27;59849;-71
2023/10/16 02:52:17;;;;;;;;;3.00;1.25;;;;;8.54;52.18;101551.81;5119426;27;45322;-71
2023/10/16 02:54:45;;;;;;;;;2.00;2.00;;;;;8.50;52.61;101546.63;5118575;27;45326;-71
2023/10/16 02:57:11;;;;;;;;;2.50;1.50;;;;;8.48;52.73;101546.63;5119170;27;45641;-71
2023/10/16 02:59:38;;;;;;;;;1.75;1.00;;;;;8.47;53.06;101546.63;5121804;27;45999;-71
2023/10/16 03:02:10;;;;;;;;;1.50;1.00;;;;;8.50;53.37;101557.91;5122369;27;45455;-72
2023/10/16 03:04:35;;;;;;;;;2.00;1.25;;;;;8.49;52.74;101555.31;5103903;27;45201;-72
2023/10/16 03:07:00;;;;;;;;;1.25;1.25;;;;;8.40;53.15;101539.69;5101548;27;47994;-71
2023/10/16 03:09:25;;;;;;;;;2.00;1.75;;;;;8.40;52.84;101542.28;5110806;27;45387;-71
2023/10/16 03:12:04;;;;;;;;;4.75;2.50;;;;;8.43;53.51;101545.78;5122814;27;65553;-71
2023/10/16 03:14:44;;;;;;;;;3.00;2.00;;;;;8.43;53.80;101545.78;5091307;27;45798;-70
2023/10/16 03:17:17;;;;;;;;;3.00;1.00;;;;;8.43;53.48;101551.00;5122107;27;45575;-71
2023/10/16 03:19:43;;;;;;;;;2.25;1.00;;;;;8.41;53.83;101544.00;5104536;27;45636;-70
2023/10/16 03:22:11;;;;;;;;;4.00;2.00;;;;;8.37;53.73;101530.13;5108763;27;45388;-70
2023/10/16 03:24:37;;;;;;;;;3.00;2.75;;;;;8.39;53.65;101535.31;5105212;27;45439;-71
2023/10/16 03:27:08;;;;;;;;;2.75;1.50;;;;;8.39;53.74;101540.53;5122051;27;45904;-71
2023/10/16 03:29:33;;;;;;;;;2.50;2.50;;;;;8.36;53.80;101542.28;5121926;27;45818;-70
2023/10/16 03:31:59;;;;;;;;;1.75;1.50;;;;;8.36;53.45;101534.47;5104288;27;45388;-70
2023/10/16 03:34:24;;;;;;;;;6.50;2.00;;;;;8.30;54.14;101529.28;5122549;27;65574;-70
2023/10/16 03:36:54;;;;;;;;;1.50;1.25;;;;;8.28;54.59;101524.94;5121003;27;68625;-71
2023/10/16 03:39:19;;;;;;;;;4.50;1.75;;;;;8.30;54.31;101525.81;5122771;27;45810;-71
2023/10/16 03:41:45;;;;;;;;;1.50;1.25;;;;;8.23;54.26;101518.88;5122277;27;45539;-70
2023/10/16 03:44:18;;;;;;;;;5.25;1.75;;;;;8.29;54.81;101527.56;5121585;27;54810;-71
2023/10/16 03:46:44;;;;;;;;;3.00;2.50;;;;;8.27;53.94;101523.19;5120819;27;46904;-70
2023/10/16 03:49:14;;;;;;;;;2.00;2.00;;;;;8.24;54.29;101518.03;5111196;27;45794;-70
2023/10/16 03:51:39;;;;;;;;;2.25;2.00;;;;;8.21;54.77;101521.50;5101370;27;45271;-70
2023/10/16 03:54:05;;;;;;;;;3.25;3.00;;;;;8.23;54.20;101516.28;5101146;27;45571;-70
2023/10/16 03:56:30;;;;;;;;;4.25;1.00;;;;;8.20;54.61;101518.91;5104687;27;45450;-71
2023/10/16 03:58:57;;;;;;;;;3.75;3.00;;;;;8.17;55.04;101523.25;5084005;27;45699;-71
2023/10/16 04:01:29;;;;;;;;;3.75;1.75;;;;;8.15;54.52;101534.56;5105990;27;45398;-71
2023/10/16 04:03:57;;;;;;;;;3.00;2.00;;;;;8.07;54.83;101525.91;5100779;27;45259;-71
2023/10/16 04:06:24;;;;;;;;;4.25;2.00;;;;;8.06;54.89;101524.19;5084102;27;48356;-71
2023/10/16 04:08:51;;;;;;;;;4.75;2.75;;;;;8.00;54.88;101525.06;5104750;27;45439;-72
2023/10/16 04:11:17;;;;;;;;;3.75;2.00;;;;;7.95;55.30;101522.47;5114795;27;45326;-72
2023/10/16 04:13:49;;;;;;;;;2.25;2.00;;;;;7.96;55.32;101526.81;5083716;27;45347;-71
2023/10/16 04:16:30;;;;;;;;;4.00;2.00;;;;;7.96;55.75;101526.81;5100906;27;45419;-71
2023/10/16 04:19:34;;;;;;;;;7.50;2.00;;;;;7.95;56.15;101522.47;5100699;27;45280;-71
2023/10/16 04:21:57;;;;;;;;;2.00;2.00;;;;;7.92;55.88;101522.47;5100850;27;45407;-71
2023/10/16 04:27:22;;;;;;;;;3.00;2.00;;;;;7.89;56.10;101519.88;5121218;27;45522;-71
2023/10/16 04:29:46;;;;;;;;;4.75;2.75;;;;;7.82;55.58;101520.78;5122162;27;45244;-71
2023/10/16 04:32:37;;;;;;;;;4.00;4.00;;;;;7.85;55.78;101517.31;5121178;27;45584;-71
2023/10/16 04:35:28;;;;;;;;;3.00;2.00;;;;;7.82;55.62;101520.78;5122285;27;45474;-72
2023/10/16 04:37:49;;;;;;;;;5.00;2.50;;;;;7.78;56.07;101517.31;5121075;27;45541;-72
2023/10/16 05:03:24;;;;;;;;;2.25;2.25;;;;;7.84;56.32;101479.09;5111910;27;45322;-71
2023/10/16 05:06:05;;;;;;;;;4.00;3.00;;;;;7.79;56.73;101476.47;5082993;27;45885;-71
2023/10/16 05:08:59;;;;;;;;;3.25;2.00;;;;;7.84;56.52;101473.88;5101616;27;45449;-71
2023/10/16 05:19:44;;;;;;;;;3.00;3.00;;;;;7.87;56.86;101486.91;5058832;27;45463;-72
2023/10/16 06:14:09;;;;;;;;;4.25;2.00;;;;;7.87;56.56;101472.13;5086515;27;46183;-71
2023/10/16 06:14:34;;;;;;;;;4.00;4.00;;;;;7.87;57.58;101484.28;5099140;27;45350;-71
2023/10/16 06:16:59;;;;;;;;;8.50;3.25;;;;;7.88;57.24;101473.88;5099028;27;45332;-70
2023/10/16 06:19:25;;;;;;;;;4.00;2.00;;;;;7.90;57.46;101477.31;5082039;27;45398;-70
2023/10/16 06:21:52;;;;;;;;;9.00;3.00;;;;;7.90;57.82;101471.25;5081344;27;63062;-71
2023/10/16 06:25:10;;;;;;;;;5.75;3.00;;;;;7.89;57.25;101469.50;5102047;27;47123;-70
2023/10/16 06:27:18;;;;;;;;;6.25;3.00;;;;;7.88;57.38;101467.75;5108656;27;45793;-71
2023/10/16 06:29:49;;;;;;;;;4.00;3.25;;;;;7.91;57.90;101480.78;5119693;27;45396;-71
2023/10/16 06:32:18;;;;;;;;;4.00;3.00;;;;;7.91;57.79;101471.22;5119267;27;45263;-71
2023/10/16 06:34:57;;;;;;;;;4.25;2.25;;;;;7.92;57.67;101472.97;5122322;27;46279;-71
2023/10/16 06:37:23;;;;;;;;;5.75;4.25;;;;;7.91;57.74;101465.16;5106605;27;45963;-71
2023/10/16 06:39:54;;;;;;;;;5.00;4.25;;;;;8.00;57.66;101478.13;5123001;27;45519;-71
2023/10/16 06:42:20;;;;;;;;;3.50;2.50;;;;;7.91;57.33;101460.81;5106426;27;45875;-71
2023/10/16 06:44:55;;;;;;;;;9.50;4.00;;;;;8.04;57.98;101479.88;5105425;27;47150;-71
2023/10/16 06:47:35;;;;;;;;;4.50;4.25;;;;;8.06;58.16;101480.72;5122761;27;45417;-71
2023/10/16 06:50:01;;;;;;;;;6.25;4.25;;;;;8.09;57.53;101480.72;5119907;27;45298;-71
2023/10/16 06:52:26;;;;;;;;;3.75;3.00;;;;;8.12;57.79;101464.19;5102469;27;46474;-71
2023/10/16 06:54:51;;;;;;;;;3.00;3.00;;;;;8.17;57.94;101473.72;5101945;27;46447;-71
2023/10/16 06:57:19;;;;;;;;;5.75;3.25;;;;;8.26;58.02;101475.41;5084170;27;66383;-71
2023/10/16 06:59:45;;;;;;;;;5.50;4.50;;;;;8.29;57.73;101470.19;5103511;27;45252;-71
2023/10/16 07:02:15;;;;;;;;;7.75;3.25;;;;;8.29;57.50;101467.56;5088843;27;45379;-72
2023/10/16 07:04:42;;;;;;;;;4.50;3.75;;;;;8.32;57.24;101472.78;5101814;27;46527;-71
2023/10/16 07:07:14;;;;;;;;;3.50;3.50;;;;;8.35;57.44;101475.34;5101961;27;45721;-71
2023/10/16 07:09:49;;;;;;;;;4.25;3.25;;;;;8.35;57.08;101469.28;5113073;27;45278;-71
2023/10/16 07:12:17;;;;;;;;;4.25;3.25;;;;;8.41;57.42;101469.25;5108020;27;45473;-71
2023/10/16 07:14:55;;;;;;;;;5.00;5.00;;;;;8.47;57.24;101471.00;5084177;27;48184;-69
2023/10/16 07:17:22;;;;;;;;;8.75;2.50;;;;;8.47;56.97;101465.78;5116887;27;45420;-72
2023/10/16 07:19:47;;;;;;;;;5.25;4.25;;;;;8.50;57.26;101469.22;5122567;27;45315;-71
2023/10/16 07:22:16;;;;;;;;;32.00;24.75;;;;;8.51;57.27;101462.25;5123363;27;46195;-71
2023/10/16 07:24:42;;;;;;;;;9.50;6.75;;;;;8.54;57.26;101470.94;5105228;27;47522;-71
2023/10/16 07:27:12;;;;;;;;;5.00;4.00;;;;;8.52;57.10;101469.22;5122140;27;45398;-72
2023/10/16 07:29:41;;;;;;;;;7.75;4.00;;;;;8.51;57.35;101470.09;5122268;27;45410;-71
2023/10/16 07:32:09;;;;;;;;;6.00;3.00;;;;;8.53;57.27;101470.94;5121350;27;45627;-71
2023/10/16 07:34:36;;;;;;;;;3.25;3.00;;;;;8.61;57.08;101482.19;5104724;27;48295;-71
2023/10/16 07:37:04;;;;;;;;;4.00;3.50;;;;;8.64;57.17;101461.31;5116950;27;45464;-71
2023/10/16 07:39:30;;;;;;;;;8.00;4.25;;;;;8.75;56.78;101471.66;5101329;27;45399;-71
2023/10/16 07:41:55;;;;;;;;;3.25;3.00;;;;;8.75;56.88;101471.66;5084162;27;45257;-71
2023/10/16 07:44:20;;;;;;;;;4.25;3.00;;;;;8.73;56.80;101471.66;5101052;27;45493;-71
2023/10/16 07:46:46;;;;;;;;;1.25;1.00;;;;;8.78;56.84;101473.38;5083677;27;51969;-70
2023/10/16 07:49:15;;;;;;;;;3.00;3.00;;;;;8.80;56.83;101469.00;5084184;27;45198;-71
2023/10/16 07:51:45;;;;;;;;;9.25;4.50;;;;;8.87;56.89;101468.97;5101207;27;45489;-69
2023/10/16 07:54:11;;;;;;;;;4.00;3.50;;;;;8.90;56.39;101473.28;5102320;27;45509;-71
2023/10/16 07:56:38;;;;;;;;;4.00;3.00;;;;;8.91;56.42;101472.41;5101032;27;45219;-71
2023/10/16 07:59:07;;;;;;;;;5.25;4.00;;;;;8.99;56.23;101485.38;5101443;27;45390;-71
2023/10/16 08:01:36;;;;;;;;;5.00;3.75;;;;;9.01;56.37;101479.28;5104718;27;45565;-70
2023/10/16 08:04:05;;;;;;;;;8.00;3.00;;;;;9.02;56.45;101475.78;5100936;27;46165;-71
2023/10/16 08:06:31;;;;;;;;;3.00;3.00;;;;;9.06;56.13;101474.00;5084294;27;45713;-71
2023/10/16 08:11:43;;;;;;;;;5.25;3.75;;;;;9.12;55.72;101467.00;5101186;27;45477;-71
2023/10/16 08:14:09;;;;;;;;;2.75;2.25;;;;;9.16;56.07;101462.59;5084031;27;47184;-72
2023/10/16 08:16:35;;;;;;;;;5.50;3.00;;;;;9.27;55.96;101465.13;5083499;27;45319;-71
2023/10/16 08:19:00;;;;;;;;;8.25;4.00;;;;;9.29;55.67;101461.59;5082532;27;62271;-69
2023/10/16 08:21:26;;;;;;;;;5.00;3.00;;;;;9.32;55.63;101463.31;5100718;27;45561;-70
2023/10/16 08:23:56;;;;;;;;;4.25;4.00;;;;;9.37;55.56;101445.84;5114145;27;45279;-70
2023/10/16 08:26:28;;;;;;;;;6.00;5.25;;;;;9.44;55.73;101451.88;5100533;27;45357;-70
2023/10/16 08:28:55;;;;;;;;;3.50;3.00;;;;;9.55;55.56;101454.38;5088383;27;45311;-71
2023/10/16 08:31:23;;;;;;;;;5.00;3.25;;;;;9.65;55.54;101453.38;5103770;27;45487;-70
2023/10/16 08:33:55;;;;;;;;;4.00;3.00;;;;;9.71;55.22;101447.22;5104037;27;47190;-71
2023/10/16 08:36:22;;;;;;;;;7.25;3.00;;;;;9.77;55.36;101449.75;5108598;27;45468;-71
2023/10/16 08:38:54;;;;;;;;;6.50;4.50;;;;;9.82;55.16;101445.34;5100291;27;45391;-70
2023/10/16 08:41:42;;;;;;;;;4.00;1.25;;;;;9.87;54.85;101433.06;5100430;27;46035;-71
2023/10/16 08:44:08;;;;;;;;;6.00;3.25;;;;;9.86;54.82;101426.09;5085220;27;47401;-71
2023/10/16 08:46:44;;;;;;;;;2.75;2.75;;;;;9.98;54.87;101435.56;5100187;27;45308;-71
2023/10/16 08:49:10;;;;;;;;;4.00;4.00;;;;;10.05;54.59;101427.59;5100446;27;45331;-72
2023/10/16 08:51:36;;;;;;;;;3.00;3.00;;;;;10.14;54.78;101430.97;5099795;27;45420;-71
2023/10/16 08:54:05;;;;;;;;;6.00;4.50;;;;;10.22;54.51;101432.59;5100510;27;45642;-70
2023/10/16 08:56:31;;;;;;;;;4.50;4.25;;;;;10.27;54.41;101425.56;5100562;27;45306;-71
2023/10/16 08:59:01;;;;;;;;;15.00;13.25;;;;;10.26;54.63;101420.34;5101516;27;45301;-71
2023/10/16 09:01:28;;;;;;;;;8.75;5.00;;;;;10.28;54.22;101413.31;5104242;27;45244;-71
2023/10/16 09:04:00;;;;;;;;;4.25;4.25;;;;;10.35;54.27;101416.75;5099729;27;46177;-71
2023/10/16 09:06:25;;;;;;;;;4.75;2.50;;;;;10.26;54.19;101402.03;5101117;27;45305;-72
2023/10/16 09:08:54;;;;;;;;;4.00;3.00;;;;;10.26;54.24;101413.34;5104396;27;45268;-71
2023/10/16 09:11:19;;;;;;;;;3.75;3.50;;;;;10.26;54.35;101402.03;5114046;27;45421;-71
2023/10/16 09:13:49;;;;;;;;;6.00;3.00;;;;;10.25;54.26;101405.53;5099753;27;45441;-70
2023/10/16 09:16:15;;;;;;;;;2.75;2.00;;;;;10.26;54.21;101397.66;5083137;27;45320;-71
2023/10/16 09:18:41;;;;;;;;;4.00;4.00;;;;;10.29;54.57;101401.09;5099919;27;45488;-70
2023/10/16 09:24:03;;;;;;;;;3.75;3.25;;;;;10.34;54.18;101397.59;5096398;27;46113;-71
2023/10/16 09:26:37;;;;;;;;;6.00;3.75;;;;;10.42;54.14;101397.47;5101005;27;45268;-70
2023/10/16 09:29:16;;;;;;;;;4.00;3.00;;;;;10.47;53.89;101387.78;5099614;27;45459;-71
2023/10/16 09:31:45;;;;;;;;;4.75;3.25;;;;;10.55;53.97;101387.66;5097511;27;45552;-71
2023/10/16 09:34:18;;;;;;;;;4.25;3.00;;;;;10.68;53.54;101390.91;5121607;27;46325;-71
2023/10/16 09:39:34;;;;;;;;;4.00;2.00;;;;;10.82;53.55;101381.97;5108461;27;45484;-72
2023/10/16 09:42:05;;;;;;;;;3.75;2.00;;;;;10.87;53.36;101381.88;5104274;27;45854;-71
2023/10/16 09:44:37;;;;;;;;;2.75;2.75;;;;;10.94;53.53;101374.75;5118761;27;46392;-71
2023/10/16 09:47:25;;;;;;;;;6.50;3.50;;;;;10.96;53.27;101379.09;5103393;27;45787;-71
2023/10/16 09:49:59;;;;;;;;;4.00;3.00;;;;;11.00;52.75;101372.06;5120242;27;45223;-71
2023/10/16 09:52:25;;;;;;;;;2.25;1.00;;;;;11.04;52.89;101376.31;5121415;27;45297;-71
2023/10/16 09:54:51;;;;;;;;;4.00;3.00;;;;;11.09;52.79;101374.50;5119511;27;45460;-71
2023/10/16 09:57:27;;;;;;;;;7.75;3.25;;;;;11.11;52.93;101371.84;5102564;27;45458;-70
2023/10/16 10:00:00;;;;;;;;;4.50;3.00;;;;;11.20;52.66;101369.91;5120043;27;45488;-71
2023/10/16 10:02:26;;;;;;;;;3.00;3.00;;;;;11.31;52.49;101363.59;5106120;27;45252;-71
2023/10/16 10:04:59;;;;;;;;;4.25;2.00;;;;;11.38;52.32;101359.94;5098905;27;47470;-72
2023/10/16 10:07:36;;;;;;;;;2.50;2.00;;;;;11.50;52.10;101362.31;5099979;27;45841;-71
2023/10/16 10:12:48;;;;;;;;;8.25;2.00;;;;;11.65;51.95;101352.41;5104885;27;45194;-71
2023/10/16 10:15:30;;;;;;;;;5.00;2.25;;;;;11.70;51.64;101348.78;5102704;27;45367;-71
2023/10/16 10:18:01;;;;;;;;;2.50;2.50;;;;;11.76;51.25;101345.19;5085753;27;45270;-71
2023/10/16 10:20:40;;;;;;;;;8.00;2.75;;;;;11.79;51.03;101342.47;5101560;27;45276;-71
2023/10/16 10:23:06;;;;;;;;;3.25;3.00;;;;;11.84;51.31;101339.75;5107903;27;45475;-71
2023/10/16 10:25:38;;;;;;;;;3.50;2.75;;;;;11.90;51.31;101331.78;5123191;27;46108;-71
2023/10/16 10:28:11;;;;;;;;;4.50;3.00;;;;;11.93;51.18;101324.72;5123651;27;45300;-71
2023/10/16 10:30:43;;;;;;;;;4.50;3.00;;;;;11.95;50.98;101324.66;5124326;27;45415;-71
2023/10/16 10:33:10;;;;;;;;;2.00;2.00;;;;;12.00;50.84;101320.16;5122913;27;45411;-72
2023/10/16 10:35:39;;;;;;;;;19.00;12.00;;;;;12.03;50.28;101321.88;5102842;27;46179;-71
2023/10/16 10:38:07;;;;;;;;;6.00;3.00;;;;;12.06;50.79;101320.03;5115856;27;45281;-72
2023/10/16 10:40:35;;;;;;;;;2.50;2.25;;;;;12.11;50.78;101314.66;5109751;27;45378;-71
2023/10/16 10:43:04;;;;;;;;;3.00;3.00;;;;;12.19;50.20;101311.88;5105113;27;45451;-71
2023/10/16 10:45:39;;;;;;;;;3.25;2.50;;;;;12.26;50.63;101305.56;5115297;27;46474;-71
2023/10/16 10:48:09;;;;;;;;;5.00;2.75;;;;;12.34;50.04;101308.84;5098508;27;45388;-71
2023/10/16 10:50:38;;;;;;;;;5.25;4.00;;;;;12.40;49.75;101300.84;5085395;27;45359;-71
2023/10/16 10:53:13;;;;;;;;;3.00;2.50;;;;;12.49;49.93;101297.13;5103278;27;45390;-71
2023/10/16 10:55:56;;;;;;;;;3.00;1.50;;;;;12.61;49.55;101295.94;5101950;27;48113;-71
2023/10/16 10:58:24;;;;;;;;;5.00;2.00;;;;;12.66;49.05;101294.91;5087887;27;45362;-71
2023/10/16 11:00:50;;;;;;;;;4.50;2.00;;;;;12.78;49.32;101304.22;5115711;27;45260;-71
2023/10/16 11:03:41;;;;;;;;;5.50;4.00;;;;;12.87;49.59;101300.47;5091312;27;45529;-72
2023/10/16 11:06:15;;;;;;;;;2.00;1.75;;;;;12.98;48.46;101300.16;5105541;27;45461;-71
2023/10/16 11:08:41;;;;;;;;;5.50;3.00;;;;;13.13;48.58;101307.63;5104571;27;45889;-71
2023/10/16 11:11:10;;;;;;;;;9.75;5.50;;;;;13.20;48.04;101293.41;5121868;27;63229;-71
2023/10/16 11:13:44;;;;;;;;;9.00;5.25;;;;;13.27;48.41;101286.22;5122642;27;45391;-71
2023/10/16 11:16:09;;;;;;;;;5.00;4.50;;;;;13.34;47.89;101266.75;5105050;27;47290;-71
2023/10/16 11:18:37;;;;;;;;;6.00;4.50;;;;;13.40;48.67;101271.84;5108460;27;45495;-72
2023/10/16 11:21:06;;;;;;;;;6.75;2.00;;;;;13.47;48.37;101257.59;5103126;27;45299;-71
2023/10/16 11:23:32;;;;;;;;;6.25;4.50;;;;;13.54;48.04;101260.03;5115578;27;45358;-71
2023/10/16 11:25:58;;;;;;;;;5.00;3.75;;;;;13.59;47.94;101253.72;5102035;27;46248;-71
2023/10/16 11:28:31;;;;;;;;;3.00;2.50;;;;;13.64;46.83;101257.06;5101628;27;45283;-71
2023/10/16 11:30:58;;;;;;;;;4.00;2.00;;;;;13.66;46.97;101249.13;5101760;27;45395;-71
2023/10/16 11:33:28;;;;;;;;;3.00;2.00;;;;;13.73;47.19;101244.53;5101290;27;45174;-71
2023/10/16 11:35:58;;;;;;;;;2.25;2.25;;;;;13.78;46.36;101245.25;5102972;27;46432;-71
2023/10/16 11:38:28;;;;;;;;;2.00;2.00;;;;;13.76;47.33;101233.94;5084527;27;45438;-71
2023/10/16 11:40:55;;;;;;;;;2.00;1.00;;;;;13.80;46.18;101230.28;5101857;27;45363;-72
2023/10/16 11:43:21;;;;;;;;;2.00;2.00;;;;;13.82;46.69;101225.81;5101302;27;45446;-72
2023/10/16 11:45:54;;;;;;;;;3.00;2.50;;;;;13.85;46.56;101217.84;5101622;27;46196;-71
2023/10/16 11:48:35;;;;;;;;;2.00;2.00;;;;;13.88;45.99;101208.97;5101238;27;45488;-71
2023/10/16 11:51:16;;;;;;;;;3.00;2.00;;;;;13.89;45.87;101203.66;5101577;27;45321;-71
2023/10/16 11:53:43;;;;;;;;;4.75;2.00;;;;;13.95;46.59;101211.38;5101353;27;45559;-71
2023/10/16 11:56:09;;;;;;;;;5.00;2.00;;;;;13.98;45.78;101205.13;5084050;27;47769;-71
2023/10/16 11:58:35;;;;;;;;;1.50;1.50;;;;;13.99;45.61;101198.97;5101185;27;45252;-71
2023/10/16 12:01:11;;;;;;;;;4.75;2.00;;;;;13.99;45.01;101197.19;5105835;27;45285;-70
2023/10/16 12:03:37;;;;;;;;;3.25;2.00;;;;;14.02;45.67;101198.84;5085087;27;45260;-71
2023/10/16 12:06:07;;;;;;;;;2.25;1.00;;;;;13.93;44.94;101171.06;5083762;27;48179;-71
2023/10/16 12:08:32;;;;;;;;;2.00;2.00;;;;;14.02;44.89;101167.25;5102000;27;45223;-71
2023/10/16 12:11:01;;;;;;;;;3.00;1.25;;;;;14.07;44.59;101165.34;5101018;27;45245;-71
2023/10/16 12:13:27;;;;;;;;;3.00;1.00;;;;;14.14;45.00;101160.72;5100905;27;45280;-71
2023/10/16 12:15:53;;;;;;;;;1.25;1.00;;;;;14.18;44.77;101151.78;5100913;27;45390;-71
2023/10/16 12:18:21;;;;;;;;;3.00;1.00;;;;;14.23;45.14;101142.81;5100606;27;45418;-70
2023/10/16 12:20:46;;;;;;;;;2.00;1.50;;;;;14.32;44.55;101151.31;5102069;27;45317;-70
2023/10/16 12:23:11;;;;;;;;;3.75;2.00;;;;;14.34;44.70;101145.09;5111676;27;45524;-70
2023/10/16 12:25:37;;;;;;;;;3.25;2.00;;;;;14.44;44.47;101154.34;5103148;27;65822;-72
2023/10/16 12:28:07;;;;;;;;;2.75;1.50;;;;;14.53;44.45;101157.56;5103651;27;57856;-71
2023/10/16 12:30:32;;;;;;;;;3.25;1.50;;;;;14.57;43.80;101146.88;5103543;27;45375;-72
2023/10/16 12:32:59;;;;;;;;;2.50;1.00;;;;;14.62;43.57;101149.34;5121447;27;64366;-72
2023/10/16 12:35:26;;;;;;;;;1.75;1.75;;;;;14.70;43.75;101164.91;5122137;27;45374;-71
2023/10/16 12:37:55;;;;;;;;;3.00;2.00;;;;;14.71;43.35;101149.00;5122377;27;45341;-71
2023/10/16 12:40:24;;;;;;;;;3.00;2.50;;;;;14.74;43.08;101138.34;5101767;27;45378;-71
2023/10/16 12:42:58;;;;;;;;;3.00;2.50;;;;;14.77;42.32;101137.41;5100606;27;45304;-71
2023/10/16 12:45:25;;;;;;;;;0.50;0.50;;;;;14.75;43.16;101126.91;5100255;27;47360;-71
2023/10/16 12:47:54;;;;;;;;;2.00;2.00;;;;;14.71;42.80;101124.44;5099903;27;45336;-71
2023/10/16 12:50:24;;;;;;;;;5.00;5.00;;;;;14.71;42.36;101125.28;5107670;27;45281;-71
2023/10/16 12:52:54;;;;;;;;;3.75;3.00;;;;;14.70;42.62;101120.13;5104067;27;45350;-72
2023/10/16 12:55:22;;;;;;;;;2.00;1.00;;;;;14.70;41.86;101114.84;5120291;27;46513;-72
2023/10/16 12:57:48;;;;;;;;;1.00;1.00;;;;;14.75;42.59;101115.50;5121223;27;45406;-72
2023/10/16 13:00:16;;;;;;;;;5.75;3.00;;;;;14.76;41.91;101112.81;5103901;27;45461;-72
2023/10/16 13:02:43;;;;;;;;;3.00;1.00;;;;;14.76;42.08;101101.41;5104300;27;45318;-72
2023/10/16 13:05:14;;;;;;;;;3.25;1.00;;;;;14.83;41.93;101109.94;5101062;27;45527;-72
2023/10/16 13:07:41;;;;;;;;;1.50;1.50;;;;;14.83;41.93;101105.53;5114282;27;45261;-73
2023/10/16 13:10:08;;;;;;;;;2.00;2.00;;;;;14.80;42.35;101098.63;5118720;27;45319;-72
2023/10/16 13:12:36;;;;;;;;;2.75;1.00;;;;;14.73;42.01;101085.72;5106851;27;45213;-72
2023/10/16 13:15:02;;;;;;;;;1.00;1.00;;;;;14.77;41.05;101090.81;5111154;27;45769;-71